Date,TemperatureHighF,TemperatureAvgF,TemperatureLowF,DewpointHighF,DewpointAvgF,DewpointLowF,HumidityHigh,HumidityAvg,HumidityLow,PressureMaxIn,PressureMinIn,WindSpeedMaxMPH,WindSpeedAvgMPH,GustSpeedMaxMPH,PrecipitationSumIn
2013-7-1,87.3,76.1,71.6,81.1,74.9,59.9,99,97,65,30.04,29.92,27,6,27,2.49
2013-7-2,88.3,76.8,71.1,81.3,75.8,70.7,99,97,68,30.12,29.99,20,3,20,1.03
2013-7-3,90.7,77.9,73.6,80.6,75.6,70.5,99,94,54,30.15,30.07,25,4,25,0.35
2013-7-4,90.3,78.9,72.9,80.6,75.2,70.3,99,90,54,30.17,30.08,22,4,22,0.11
2013-7-5,88.5,79.0,74.3,80.2,76.0,70.7,99,91,58,30.16,30.06,23,4,23,0.33
2013-7-6,92.1,82.5,75.6,81.1,73.2,61.3,99,77,39,30.14,30.03,15,5,15,0.21
2013-7-7,91.4,82.0,76.1,82.0,74.4,67.1,99,80,47,30.15,30.04,26,5,26,0.17
2013-7-8,92.3,81.9,75.9,80.4,73.4,62.8,99,79,39,30.17,30.09,27,3,27,0.04
2013-7-9,89.1,80.8,73.4,79.7,71.6,63.3,99,76,44,30.18,30.07,23,4,23,0.00
2013-7-10,89.1,79.7,73.4,80.1,73.2,64.0,99,83,45,30.12,30.00,12,2,12,0.05
2013-7-11,89.4,80.7,74.1,80.1,73.0,64.2,99,80,46,30.07,29.96,11,2,11,0.01
2013-7-12,90.5,81.1,73.9,80.8,72.6,64.2,99,78,44,29.99,29.92,11,2,11,0.00
2013-7-13,87.3,77.3,73.2,79.5,75.1,70.5,99,94,61,30.02,29.94,15,3,15,0.96
2013-7-14,85.3,77.5,73.4,79.3,74.5,68.0,99,92,58,30.11,29.98,15,5,15,0.01
2013-7-15,89.1,78.1,72.5,77.0,72.8,64.9,99,86,45,30.13,30.02,18,3,18,0.63
2013-7-16,87.1,77.8,73.2,79.2,73.0,66.6,99,87,53,30.17,30.07,30,7,30,0.13
2013-7-17,86.9,78.9,74.3,79.7,72.6,64.8,99,83,51,30.16,30.06,21,6,21,0.01
2013-7-18,82.4,75.5,72.1,79.0,73.7,71.4,99,95,73,30.14,30.07,16,3,16,0.73
2013-7-19,92.7,78.4,71.4,79.9,73.2,64.2,99,87,44,30.16,30.05,15,3,15,0.09
2013-7-20,92.1,79.0,74.5,83.7,74.9,69.8,99,89,50,30.15,30.05,27,3,27,0.12
2013-7-21,90.3,80.7,74.7,83.5,76.9,74.1,99,89,61,30.17,30.07,12,2,12,0.02
2013-7-22,93.7,83.4,75.2,81.3,74.5,65.1,99,78,41,30.17,30.09,11,2,11,0.00
2013-7-23,91.9,83.4,76.8,82.9,74.8,66.4,99,79,44,30.14,30.01,11,2,11,0.00
2013-7-24,90.0,82.3,74.3,81.1,72.2,62.8,99,75,42,30.06,29.96,15,3,15,0.00
2013-7-25,88.7,82.6,76.5,80.6,74.5,69.4,99,78,56,30.05,29.94,14,3,14,0.00
2013-7-26,92.7,82.9,76.3,82.2,73.9,66.2,99,76,43,30.05,29.97,11,2,11,0.20
2013-7-27,92.5,83.7,77.5,83.7,74.2,64.8,99,76,44,30.04,29.95,12,2,12,0.00
2013-7-28,92.7,83.8,76.1,83.7,71.1,58.1,99,71,33,30.09,29.97,14,2,14,0.00
2013-7-29,93.6,81.2,74.3,79.3,72.8,61.7,99,80,35,30.14,30.05,11,2,11,0.00
2013-7-30,93.0,83.7,78.4,79.3,74.7,67.5,99,76,47,30.19,30.10,19,3,19,0.01
2013-7-31,92.5,81.4,75.9,82.9,75.0,67.3,99,84,45,30.16,30.03,15,2,15,0.01